sensor_id;sensor_type;location;lat;lon;timestamp;temperature;humidity
60242;SHT30;46103;52.076;113.488;2023-04-22T00:00:39;-4.04;38.77
60242;SHT30;46103;52.076;113.488;2023-04-22T00:03:43;-3.90;38.46
60242;SHT30;46103;52.076;113.488;2023-04-22T00:06:47;-3.77;37.65
60242;SHT30;46103;52.076;113.488;2023-04-22T00:09:51;-3.59;37.44
60242;SHT30;46103;52.076;113.488;2023-04-22T00:12:54;-3.46;37.03
60242;SHT30;46103;52.076;113.488;2023-04-22T00:15:58;-3.22;35.56
60242;SHT30;46103;52.076;113.488;2023-04-22T00:19:01;-3.18;35.45
60242;SHT30;46103;52.076;113.488;2023-04-22T00:22:06;-3.01;34.60
60242;SHT30;46103;52.076;113.488;2023-04-22T00:25:09;-2.87;34.76
60242;SHT30;46103;52.076;113.488;2023-04-22T00:28:13;-2.70;34.59
60242;SHT30;46103;52.076;113.488;2023-04-22T00:31:17;-2.53;34.12
60242;SHT30;46103;52.076;113.488;2023-04-22T00:34:21;-2.46;33.95
60242;SHT30;46103;52.076;113.488;2023-04-22T00:37:25;-2.42;34.05
60242;SHT30;46103;52.076;113.488;2023-04-22T00:40:29;-2.39;34.49
60242;SHT30;46103;52.076;113.488;2023-04-22T00:43:34;-2.19;34.27
60242;SHT30;46103;52.076;113.488;2023-04-22T00:46:37;-2.08;33.79
60242;SHT30;46103;52.076;113.488;2023-04-22T00:49:42;-1.91;33.54
60242;SHT30;46103;52.076;113.488;2023-04-22T00:52:46;-1.63;32.61
60242;SHT30;46103;52.076;113.488;2023-04-22T00:55:50;-1.46;32.11
60242;SHT30;46103;52.076;113.488;2023-04-22T00:58:54;-1.42;31.47
60242;SHT30;46103;52.076;113.488;2023-04-22T01:01:59;-1.19;29.97
60242;SHT30;46103;52.076;113.488;2023-04-22T01:05:03;-1.05;29.09
60242;SHT30;46103;52.076;113.488;2023-04-22T01:08:08;-0.90;28.21
60242;SHT30;46103;52.076;113.488;2023-04-22T01:11:12;-0.62;27.86
60242;SHT30;46103;52.076;113.488;2023-04-22T01:14:17;-0.62;28.61
60242;SHT30;46103;52.076;113.488;2023-04-22T01:17:20;-0.50;29.36
60242;SHT30;46103;52.076;113.488;2023-04-22T01:20:27;-0.36;28.94
60242;SHT30;46103;52.076;113.488;2023-04-22T01:23:32;-0.33;28.86
60242;SHT30;46103;52.076;113.488;2023-04-22T01:26:37;-0.04;28.24
60242;SHT30;46103;52.076;113.488;2023-04-22T01:29:41;0.00;27.29
60242;SHT30;46103;52.076;113.488;2023-04-22T01:32:45;0.24;27.18
60242;SHT30;46103;52.076;113.488;2023-04-22T01:35:49;0.44;26.31
60242;SHT30;46103;52.076;113.488;2023-04-22T01:38:53;0.76;26.07
60242;SHT30;46103;52.076;113.488;2023-04-22T01:41:56;0.88;25.52
60242;SHT30;46103;52.076;113.488;2023-04-22T01:45:01;1.09;25.78
60242;SHT30;46103;52.076;113.488;2023-04-22T01:48:05;1.29;25.58
60242;SHT30;46103;52.076;113.488;2023-04-22T01:51:13;1.40;25.15
60242;SHT30;46103;52.076;113.488;2023-04-22T01:54:18;1.50;24.44
60242;SHT30;46103;52.076;113.488;2023-04-22T01:57:24;1.72;23.77
60242;SHT30;46103;52.076;113.488;2023-04-22T02:00:28;1.96;23.44
60242;SHT30;46103;52.076;113.488;2023-04-22T02:03:32;2.17;22.83
60242;SHT30;46103;52.076;113.488;2023-04-22T02:06:36;2.27;22.37
60242;SHT30;46103;52.076;113.488;2023-04-22T02:09:40;2.30;22.27
60242;SHT30;46103;52.076;113.488;2023-04-22T02:12:44;2.46;22.18
60242;SHT30;46103;52.076;113.488;2023-04-22T02:15:48;2.57;22.04
60242;SHT30;46103;52.076;113.488;2023-04-22T02:18:52;2.68;22.45
60242;SHT30;46103;52.076;113.488;2023-04-22T02:21:56;2.82;21.40
60242;SHT30;46103;52.076;113.488;2023-04-22T02:25:00;2.57;21.47
60242;SHT30;46103;52.076;113.488;2023-04-22T02:28:05;2.41;21.78
60242;SHT30;46103;52.076;113.488;2023-04-22T02:31:09;2.61;21.58
60242;SHT30;46103;52.076;113.488;2023-04-22T02:34:15;2.98;21.53
60242;SHT30;46103;52.076;113.488;2023-04-22T02:37:19;2.96;21.16
60242;SHT30;46103;52.076;113.488;2023-04-22T02:40:24;3.16;21.16
60242;SHT30;46103;52.076;113.488;2023-04-22T02:43:28;3.18;21.48
60242;SHT30;46103;52.076;113.488;2023-04-22T02:46:32;3.18;21.40
60242;SHT30;46103;52.076;113.488;2023-04-22T02:49:37;3.08;20.78
60242;SHT30;46103;52.076;113.488;2023-04-22T02:52:43;3.03;20.91
60242;SHT30;46103;52.076;113.488;2023-04-22T02:55:48;3.20;20.70
60242;SHT30;46103;52.076;113.488;2023-04-22T02:58:52;3.56;20.61
60242;SHT30;46103;52.076;113.488;2023-04-22T03:01:56;3.67;20.71
60242;SHT30;46103;52.076;113.488;2023-04-22T03:05:13;3.47;20.70
60242;SHT30;46103;52.076;113.488;2023-04-22T03:08:19;3.66;20.86
60242;SHT30;46103;52.076;113.488;2023-04-22T03:11:23;3.77;20.70
60242;SHT30;46103;52.076;113.488;2023-04-22T03:14:27;4.01;20.42
60242;SHT30;46103;52.076;113.488;2023-04-22T03:17:33;3.88;19.47
60242;SHT30;46103;52.076;113.488;2023-04-22T03:20:42;3.73;19.18
60242;SHT30;46103;52.076;113.488;2023-04-22T03:23:45;3.94;19.40
60242;SHT30;46103;52.076;113.488;2023-04-22T03:26:49;4.08;18.58
60242;SHT30;46103;52.076;113.488;2023-04-22T03:29:53;4.19;18.69
60242;SHT30;46103;52.076;113.488;2023-04-22T03:32:57;4.39;19.17
60242;SHT30;46103;52.076;113.488;2023-04-22T03:36:12;4.49;18.61
60242;SHT30;46103;52.076;113.488;2023-04-22T03:39:17;4.53;18.63
60242;SHT30;46103;52.076;113.488;2023-04-22T03:42:21;4.29;18.55
60242;SHT30;46103;52.076;113.488;2023-04-22T03:45:25;4.42;18.73
60242;SHT30;46103;52.076;113.488;2023-04-22T03:48:55;4.53;17.85
60242;SHT30;46103;52.076;113.488;2023-04-22T03:52:06;4.33;17.92
60242;SHT30;46103;52.076;113.488;2023-04-22T03:55:12;4.32;17.49
60242;SHT30;46103;52.076;113.488;2023-04-22T03:58:17;4.46;17.33
60242;SHT30;46103;52.076;113.488;2023-04-22T04:01:22;4.34;17.58
60242;SHT30;46103;52.076;113.488;2023-04-22T04:04:30;4.16;17.82
60242;SHT30;46103;52.076;113.488;2023-04-22T04:07:35;4.23;17.62
60242;SHT30;46103;52.076;113.488;2023-04-22T04:10:41;4.34;17.59
60242;SHT30;46103;52.076;113.488;2023-04-22T04:13:44;4.58;17.50
60242;SHT30;46103;52.076;113.488;2023-04-22T04:17:10;4.42;17.89
60242;SHT30;46103;52.076;113.488;2023-04-22T04:20:17;4.34;18.00
60242;SHT30;46103;52.076;113.488;2023-04-22T04:23:21;4.70;17.95
60242;SHT30;46103;52.076;113.488;2023-04-22T04:26:26;5.22;17.32
60242;SHT30;46103;52.076;113.488;2023-04-22T04:29:39;5.11;17.38
60242;SHT30;46103;52.076;113.488;2023-04-22T04:32:53;5.19;16.88
60242;SHT30;46103;52.076;113.488;2023-04-22T04:35:58;5.47;17.15
60242;SHT30;46103;52.076;113.488;2023-04-22T04:39:06;5.73;16.62
60242;SHT30;46103;52.076;113.488;2023-04-22T04:42:10;6.02;16.78
60242;SHT30;46103;52.076;113.488;2023-04-22T04:45:25;6.46;16.02
60242;SHT30;46103;52.076;113.488;2023-04-22T04:48:31;6.61;16.33
60242;SHT30;46103;52.076;113.488;2023-04-22T04:51:42;6.69;16.35
60242;SHT30;46103;52.076;113.488;2023-04-22T04:54:46;7.05;15.79
60242;SHT30;46103;52.076;113.488;2023-04-22T04:57:49;7.43;15.98
60242;SHT30;46103;52.076;113.488;2023-04-22T05:00:54;7.63;15.58
60242;SHT30;46103;52.076;113.488;2023-04-22T05:04:00;7.88;15.32
60242;SHT30;46103;52.076;113.488;2023-04-22T05:07:06;8.01;15.27
60242;SHT30;46103;52.076;113.488;2023-04-22T05:10:12;8.04;14.31
60242;SHT30;46103;52.076;113.488;2023-04-22T05:13:15;7.23;13.76
60242;SHT30;46103;52.076;113.488;2023-04-22T05:16:21;7.15;14.08
60242;SHT30;46103;52.076;113.488;2023-04-22T05:19:25;7.78;14.25
60242;SHT30;46103;52.076;113.488;2023-04-22T05:22:30;7.77;14.14
60242;SHT30;46103;52.076;113.488;2023-04-22T05:25:34;7.99;14.04
60242;SHT30;46103;52.076;113.488;2023-04-22T05:28:43;7.88;14.23
60242;SHT30;46103;52.076;113.488;2023-04-22T05:31:46;8.12;13.75
60242;SHT30;46103;52.076;113.488;2023-04-22T05:34:51;8.33;14.01
60242;SHT30;46103;52.076;113.488;2023-04-22T05:37:54;8.64;13.43
60242;SHT30;46103;52.076;113.488;2023-04-22T05:40:58;7.81;13.13
60242;SHT30;46103;52.076;113.488;2023-04-22T05:44:03;7.14;13.89
60242;SHT30;46103;52.076;113.488;2023-04-22T05:47:07;7.12;14.18
60242;SHT30;46103;52.076;113.488;2023-04-22T05:50:11;7.14;13.72
60242;SHT30;46103;52.076;113.488;2023-04-22T05:53:23;7.05;13.71
60242;SHT30;46103;52.076;113.488;2023-04-22T05:56:30;7.53;13.65
60242;SHT30;46103;52.076;113.488;2023-04-22T05:59:34;7.95;13.28
60242;SHT30;46103;52.076;113.488;2023-04-22T06:02:39;8.25;13.52
60242;SHT30;46103;52.076;113.488;2023-04-22T06:05:43;8.67;13.38
60242;SHT30;46103;52.076;113.488;2023-04-22T06:08:46;8.70;13.40
60242;SHT30;46103;52.076;113.488;2023-04-22T06:11:51;8.45;13.87
60242;SHT30;46103;52.076;113.488;2023-04-22T06:14:56;8.40;13.80
60242;SHT30;46103;52.076;113.488;2023-04-22T06:17:59;7.95;13.78
60242;SHT30;46103;52.076;113.488;2023-04-22T06:21:03;7.84;14.70
60242;SHT30;46103;52.076;113.488;2023-04-22T06:24:11;8.05;13.86
60242;SHT30;46103;52.076;113.488;2023-04-22T06:27:16;7.98;13.27
60242;SHT30;46103;52.076;113.488;2023-04-22T06:30:20;8.45;13.36
60242;SHT30;46103;52.076;113.488;2023-04-22T06:33:23;8.49;13.26
60242;SHT30;46103;52.076;113.488;2023-04-22T06:36:28;8.69;13.54
60242;SHT30;46103;52.076;113.488;2023-04-22T06:39:35;8.69;13.31
60242;SHT30;46103;52.076;113.488;2023-04-22T06:42:59;7.88;13.95
60242;SHT30;46103;52.076;113.488;2023-04-22T06:46:36;7.26;14.47
60242;SHT30;46103;52.076;113.488;2023-04-22T06:50:01;7.15;15.37
60242;SHT30;46103;52.076;113.488;2023-04-22T06:53:27;7.75;15.45
60242;SHT30;46103;52.076;113.488;2023-04-22T06:56:30;8.15;15.28
60242;SHT30;46103;52.076;113.488;2023-04-22T06:59:34;8.63;14.54
60242;SHT30;46103;52.076;113.488;2023-04-22T07:02:38;9.42;14.21
60242;SHT30;46103;52.076;113.488;2023-04-22T07:05:42;10.29;13.67
60242;SHT30;46103;52.076;113.488;2023-04-22T07:08:45;10.81;13.10
60242;SHT30;46103;52.076;113.488;2023-04-22T07:11:49;11.08;13.24
60242;SHT30;46103;52.076;113.488;2023-04-22T07:14:54;11.58;12.87
60242;SHT30;46103;52.076;113.488;2023-04-22T07:17:57;11.62;12.71
60242;SHT30;46103;52.076;113.488;2023-04-22T07:21:01;12.34;12.29
60242;SHT30;46103;52.076;113.488;2023-04-22T07:24:05;11.70;12.78
60242;SHT30;46103;52.076;113.488;2023-04-22T07:27:09;11.15;13.15
60242;SHT30;46103;52.076;113.488;2023-04-22T07:30:12;11.36;13.17
60242;SHT30;46103;52.076;113.488;2023-04-22T07:33:16;12.97;12.47
60242;SHT30;46103;52.076;113.488;2023-04-22T07:36:20;13.93;12.05
60242;SHT30;46103;52.076;113.488;2023-04-22T07:39:24;14.87;11.69
60242;SHT30;46103;52.076;113.488;2023-04-22T07:42:28;16.20;11.43
60242;SHT30;46103;52.076;113.488;2023-04-22T07:45:32;16.45;10.80
60242;SHT30;46103;52.076;113.488;2023-04-22T07:48:35;16.91;10.60
60242;SHT30;46103;52.076;113.488;2023-04-22T07:51:42;16.22;10.06
60242;SHT30;46103;52.076;113.488;2023-04-22T07:54:46;14.14;10.56
60242;SHT30;46103;52.076;113.488;2023-04-22T07:57:50;13.16;10.85
60242;SHT30;46103;52.076;113.488;2023-04-22T08:00:53;13.37;12.00
60242;SHT30;46103;52.076;113.488;2023-04-22T08:03:56;13.98;11.99
60242;SHT30;46103;52.076;113.488;2023-04-22T08:07:00;15.02;11.80
60242;SHT30;46103;52.076;113.488;2023-04-22T08:10:25;16.75;10.67
60242;SHT30;46103;52.076;113.488;2023-04-22T08:13:28;17.94;10.34
60242;SHT30;46103;52.076;113.488;2023-04-22T08:16:32;18.32;10.12
60242;SHT30;46103;52.076;113.488;2023-04-22T08:19:35;18.21;10.09
60242;SHT30;46103;52.076;113.488;2023-04-22T08:22:38;17.60;10.25
60242;SHT30;46103;52.076;113.488;2023-04-22T08:25:44;17.86;10.07
60242;SHT30;46103;52.076;113.488;2023-04-22T08:28:47;18.05;10.24
60242;SHT30;46103;52.076;113.488;2023-04-22T08:31:50;17.46;10.24
60242;SHT30;46103;52.076;113.488;2023-04-22T08:34:53;16.08;10.89
60242;SHT30;46103;52.076;113.488;2023-04-22T08:38:06;14.29;11.90
60242;SHT30;46103;52.076;113.488;2023-04-22T08:41:11;13.09;12.42
60242;SHT30;46103;52.076;113.488;2023-04-22T08:44:15;11.62;13.21
60242;SHT30;46103;52.076;113.488;2023-04-22T08:47:19;11.72;13.62
60242;SHT30;46103;52.076;113.488;2023-04-22T08:50:24;12.46;13.24
60242;SHT30;46103;52.076;113.488;2023-04-22T08:53:30;13.06;12.80
60242;SHT30;46103;52.076;113.488;2023-04-22T08:56:42;13.23;12.72
60242;SHT30;46103;52.076;113.488;2023-04-22T08:59:48;12.18;13.00
60242;SHT30;46103;52.076;113.488;2023-04-22T09:03:21;10.39;14.16
60242;SHT30;46103;52.076;113.488;2023-04-22T09:06:25;9.39;15.13
60242;SHT30;46103;52.076;113.488;2023-04-22T09:09:34;8.45;15.80
60242;SHT30;46103;52.076;113.488;2023-04-22T09:12:40;8.35;15.61
60242;SHT30;46103;52.076;113.488;2023-04-22T09:15:54;8.49;15.97
60242;SHT30;46103;52.076;113.488;2023-04-22T09:19:12;9.19;15.60
60242;SHT30;46103;52.076;113.488;2023-04-22T09:22:17;10.39;14.89
60242;SHT30;46103;52.076;113.488;2023-04-22T09:25:26;12.06;13.63
60242;SHT30;46103;52.076;113.488;2023-04-22T09:28:35;13.11;13.34
60242;SHT30;46103;52.076;113.488;2023-04-22T09:31:39;14.54;12.59
60242;SHT30;46103;52.076;113.488;2023-04-22T09:34:53;16.46;11.92
60242;SHT30;46103;52.076;113.488;2023-04-22T09:37:58;18.46;10.74
60242;SHT30;46103;52.076;113.488;2023-04-22T09:41:08;20.42;9.99
60242;SHT30;46103;52.076;113.488;2023-04-22T09:44:16;21.40;9.26
60242;SHT30;46103;52.076;113.488;2023-04-22T09:47:20;21.24;9.24
60242;SHT30;46103;52.076;113.488;2023-04-22T09:50:27;20.64;9.37
60242;SHT30;46103;52.076;113.488;2023-04-22T09:53:36;19.80;9.39
60242;SHT30;46103;52.076;113.488;2023-04-22T09:56:47;19.75;9.81
60242;SHT30;46103;52.076;113.488;2023-04-22T09:59:51;19.25;9.86
60242;SHT30;46103;52.076;113.488;2023-04-22T10:02:55;19.52;9.46
60242;SHT30;46103;52.076;113.488;2023-04-22T10:05:59;18.64;9.79
60242;SHT30;46103;52.076;113.488;2023-04-22T10:09:03;17.26;10.69
60242;SHT30;46103;52.076;113.488;2023-04-22T10:12:10;15.82;11.43
60242;SHT30;46103;52.076;113.488;2023-04-22T10:15:16;15.46;11.74
60242;SHT30;46103;52.076;113.488;2023-04-22T10:18:23;15.87;11.31
60242;SHT30;46103;52.076;113.488;2023-04-22T10:21:28;16.23;11.29
60242;SHT30;46103;52.076;113.488;2023-04-22T10:24:34;16.78;10.95
60242;SHT30;46103;52.076;113.488;2023-04-22T10:27:41;16.43;11.18
60242;SHT30;46103;52.076;113.488;2023-04-22T10:30:44;16.02;11.10
60242;SHT30;46103;52.076;113.488;2023-04-22T10:33:48;15.95;11.48
60242;SHT30;46103;52.076;113.488;2023-04-22T10:36:53;15.58;11.51
60242;SHT30;46103;52.076;113.488;2023-04-22T10:40:22;15.39;11.82
60242;SHT30;46103;52.076;113.488;2023-04-22T10:43:47;14.41;12.19
60242;SHT30;46103;52.076;113.488;2023-04-22T10:53:36;10.10;14.88
60242;SHT30;46103;52.076;113.488;2023-04-22T10:57:05;9.11;15.65
60242;SHT30;46103;52.076;113.488;2023-04-22T11:00:29;8.32;16.05
60242;SHT30;46103;52.076;113.488;2023-04-22T11:03:36;7.75;16.54
60242;SHT30;46103;52.076;113.488;2023-04-22T11:06:40;6.88;17.35
60242;SHT30;46103;52.076;113.488;2023-04-22T11:09:46;6.33;17.79
60242;SHT30;46103;52.076;113.488;2023-04-22T11:12:50;5.83;18.88
60242;SHT30;46103;52.076;113.488;2023-04-22T11:15:54;5.95;18.97
60242;SHT30;46103;52.076;113.488;2023-04-22T11:18:58;5.50;19.44
60242;SHT30;46103;52.076;113.488;2023-04-22T11:22:04;5.05;19.95
60242;SHT30;46103;52.076;113.488;2023-04-22T11:25:09;4.75;20.59
60242;SHT30;46103;52.076;113.488;2023-04-22T11:28:14;4.57;20.74
60242;SHT30;46103;52.076;113.488;2023-04-22T11:31:18;4.33;20.94
60242;SHT30;46103;52.076;113.488;2023-04-22T11:34:34;4.19;21.42
60242;SHT30;46103;52.076;113.488;2023-04-22T11:37:46;4.09;21.56
60242;SHT30;46103;52.076;113.488;2023-04-22T11:40:52;3.91;22.05
60242;SHT30;46103;52.076;113.488;2023-04-22T11:43:59;3.79;22.32
60242;SHT30;46103;52.076;113.488;2023-04-22T11:47:04;3.71;22.48
60242;SHT30;46103;52.076;113.488;2023-04-22T11:50:10;3.61;22.70
60242;SHT30;46103;52.076;113.488;2023-04-22T11:53:17;3.44;23.26
60242;SHT30;46103;52.076;113.488;2023-04-22T11:56:23;3.31;23.32
60242;SHT30;46103;52.076;113.488;2023-04-22T11:59:27;3.13;23.45
60242;SHT30;46103;52.076;113.488;2023-04-22T12:02:31;2.85;23.64
60242;SHT30;46103;52.076;113.488;2023-04-22T12:05:46;2.66;24.16
60242;SHT30;46103;52.076;113.488;2023-04-22T12:08:53;2.62;24.48
60242;SHT30;46103;52.076;113.488;2023-04-22T12:12:04;2.51;24.39
60242;SHT30;46103;52.076;113.488;2023-04-22T12:15:09;2.38;24.91
60242;SHT30;46103;52.076;113.488;2023-04-22T12:18:15;2.26;25.24
60242;SHT30;46103;52.076;113.488;2023-04-22T12:21:21;2.16;25.94
60242;SHT30;46103;52.076;113.488;2023-04-22T12:24:27;2.05;25.95
60242;SHT30;46103;52.076;113.488;2023-04-22T12:27:31;1.94;26.65
60242;SHT30;46103;52.076;113.488;2023-04-22T12:30:35;1.89;26.59
60242;SHT30;46103;52.076;113.488;2023-04-22T12:33:42;1.82;26.78
60242;SHT30;46103;52.076;113.488;2023-04-22T12:36:46;1.79;27.10
60242;SHT30;46103;52.076;113.488;2023-04-22T12:39:51;1.74;27.63
60242;SHT30;46103;52.076;113.488;2023-04-22T12:42:56;1.65;27.69
60242;SHT30;46103;52.076;113.488;2023-04-22T12:46:02;1.64;27.66
60242;SHT30;46103;52.076;113.488;2023-04-22T12:49:06;1.60;27.83
60242;SHT30;46103;52.076;113.488;2023-04-22T12:52:10;1.54;28.00
60242;SHT30;46103;52.076;113.488;2023-04-22T12:55:15;1.51;28.08
60242;SHT30;46103;52.076;113.488;2023-04-22T12:58:20;1.44;28.06
60242;SHT30;46103;52.076;113.488;2023-04-22T13:01:24;1.41;28.18
60242;SHT30;46103;52.076;113.488;2023-04-22T13:04:28;1.37;28.40
60242;SHT30;46103;52.076;113.488;2023-04-22T13:07:32;1.30;28.67
60242;SHT30;46103;52.076;113.488;2023-04-22T13:10:36;1.24;28.90
60242;SHT30;46103;52.076;113.488;2023-04-22T13:13:40;1.10;29.01
60242;SHT30;46103;52.076;113.488;2023-04-22T13:16:43;0.95;29.46
60242;SHT30;46103;52.076;113.488;2023-04-22T13:19:47;0.85;29.51
60242;SHT30;46103;52.076;113.488;2023-04-22T13:22:57;0.82;29.17
60242;SHT30;46103;52.076;113.488;2023-04-22T13:26:01;0.72;29.54
60242;SHT30;46103;52.076;113.488;2023-04-22T13:29:05;0.64;29.75
60242;SHT30;46103;52.076;113.488;2023-04-22T13:32:16;0.55;30.19
60242;SHT30;46103;52.076;113.488;2023-04-22T13:35:20;0.55;29.94
60242;SHT30;46103;52.076;113.488;2023-04-22T13:38:23;0.51;30.12
60242;SHT30;46103;52.076;113.488;2023-04-22T13:41:27;0.50;30.13
60242;SHT30;46103;52.076;113.488;2023-04-22T13:44:44;0.46;30.88
60242;SHT30;46103;52.076;113.488;2023-04-22T13:47:50;0.46;31.54
60242;SHT30;46103;52.076;113.488;2023-04-22T13:50:56;0.40;30.31
60242;SHT30;46103;52.076;113.488;2023-04-22T13:54:00;0.40;30.59
60242;SHT30;46103;52.076;113.488;2023-04-22T13:57:04;0.40;30.75
60242;SHT30;46103;52.076;113.488;2023-04-22T14:00:08;0.43;31.18
60242;SHT30;46103;52.076;113.488;2023-04-22T14:03:13;0.40;31.10
60242;SHT30;46103;52.076;113.488;2023-04-22T14:06:18;0.37;30.97
60242;SHT30;46103;52.076;113.488;2023-04-22T14:09:22;0.40;31.89
60242;SHT30;46103;52.076;113.488;2023-04-22T14:12:26;0.40;31.57
60242;SHT30;46103;52.076;113.488;2023-04-22T14:15:31;0.40;31.91
60242;SHT30;46103;52.076;113.488;2023-04-22T14:18:35;0.40;32.16
60242;SHT30;46103;52.076;113.488;2023-04-22T14:21:41;0.34;32.49
60242;SHT30;46103;52.076;113.488;2023-04-22T14:24:45;0.34;31.00
60242;SHT30;46103;52.076;113.488;2023-04-22T14:28:05;0.29;30.83
60242;SHT30;46103;52.076;113.488;2023-04-22T14:31:09;0.29;30.95
60242;SHT30;46103;52.076;113.488;2023-04-22T14:34:27;0.26;30.76
60242;SHT30;46103;52.076;113.488;2023-04-22T14:37:30;0.26;31.12
60242;SHT30;46103;52.076;113.488;2023-04-22T14:40:35;0.24;30.54
60242;SHT30;46103;52.076;113.488;2023-04-22T14:43:38;0.20;31.85
60242;SHT30;46103;52.076;113.488;2023-04-22T14:46:43;0.13;32.48
60242;SHT30;46103;52.076;113.488;2023-04-22T14:49:49;0.05;33.57
60242;SHT30;46103;52.076;113.488;2023-04-22T14:52:53;-0.02;33.97
60242;SHT30;46103;52.076;113.488;2023-04-22T14:55:57;-0.05;34.22
60242;SHT30;46103;52.076;113.488;2023-04-22T14:59:00;-0.04;34.67
60242;SHT30;46103;52.076;113.488;2023-04-22T15:02:07;-0.07;35.15
60242;SHT30;46103;52.076;113.488;2023-04-22T15:05:22;-0.21;35.35
60242;SHT30;46103;52.076;113.488;2023-04-22T15:08:32;-0.30;35.16
60242;SHT30;46103;52.076;113.488;2023-04-22T15:11:43;-0.40;35.48
60242;SHT30;46103;52.076;113.488;2023-04-22T15:14:55;-0.49;35.45
60242;SHT30;46103;52.076;113.488;2023-04-22T15:18:07;-0.55;35.50
60242;SHT30;46103;52.076;113.488;2023-04-22T15:21:19;-0.62;35.52
60242;SHT30;46103;52.076;113.488;2023-04-22T15:24:29;-0.73;35.79
60242;SHT30;46103;52.076;113.488;2023-04-22T15:27:39;-0.81;36.14
60242;SHT30;46103;52.076;113.488;2023-04-22T15:30:49;-0.84;36.16
60242;SHT30;46103;52.076;113.488;2023-04-22T15:34:00;-0.86;36.59
60242;SHT30;46103;52.076;113.488;2023-04-22T15:37:13;-0.84;36.27
60242;SHT30;46103;52.076;113.488;2023-04-22T15:40:24;-0.91;36.45
60242;SHT30;46103;52.076;113.488;2023-04-22T15:43:35;-0.98;36.59
60242;SHT30;46103;52.076;113.488;2023-04-22T15:46:47;-1.05;36.68
60242;SHT30;46103;52.076;113.488;2023-04-22T15:49:59;-1.08;37.22
60242;SHT30;46103;52.076;113.488;2023-04-22T15:53:15;-1.12;37.79
60242;SHT30;46103;52.076;113.488;2023-04-22T15:56:24;-1.12;38.50
60242;SHT30;46103;52.076;113.488;2023-04-22T15:59:35;-1.18;39.01
60242;SHT30;46103;52.076;113.488;2023-04-22T16:02:45;-1.24;39.27
60242;SHT30;46103;52.076;113.488;2023-04-22T16:06:01;-1.31;39.27
60242;SHT30;46103;52.076;113.488;2023-04-22T16:09:11;-1.38;40.03
60242;SHT30;46103;52.076;113.488;2023-04-22T16:12:25;-1.46;40.55
60242;SHT30;46103;52.076;113.488;2023-04-22T16:15:38;-1.56;41.50
60242;SHT30;46103;52.076;113.488;2023-04-22T16:18:47;-1.64;41.89
60242;SHT30;46103;52.076;113.488;2023-04-22T16:21:57;-1.73;42.16
60242;SHT30;46103;52.076;113.488;2023-04-22T16:25:07;-1.76;42.58
60242;SHT30;46103;52.076;113.488;2023-04-22T16:28:17;-1.80;43.07
60242;SHT30;46103;52.076;113.488;2023-04-22T16:31:27;-1.81;43.80
60242;SHT30;46103;52.076;113.488;2023-04-22T16:34:39;-1.84;43.66
60242;SHT30;46103;52.076;113.488;2023-04-22T16:37:50;-1.84;42.37
60242;SHT30;46103;52.076;113.488;2023-04-22T16:40:59;-1.91;42.66
60242;SHT30;46103;52.076;113.488;2023-04-22T16:44:09;-1.94;42.69
60242;SHT30;46103;52.076;113.488;2023-04-22T16:47:18;-2.04;42.71
60242;SHT30;46103;52.076;113.488;2023-04-22T16:50:27;-2.02;42.71
60242;SHT30;46103;52.076;113.488;2023-04-22T16:53:37;-2.12;43.00
60242;SHT30;46103;52.076;113.488;2023-04-22T16:56:47;-2.19;42.97
60242;SHT30;46103;52.076;113.488;2023-04-22T16:59:58;-2.21;42.43
60242;SHT30;46103;52.076;113.488;2023-04-22T17:03:08;-2.27;43.14
60242;SHT30;46103;52.076;113.488;2023-04-22T17:06:19;-2.35;41.75
60242;SHT30;46103;52.076;113.488;2023-04-22T17:09:29;-2.38;41.70
60242;SHT30;46103;52.076;113.488;2023-04-22T17:12:40;-2.41;41.74
60242;SHT30;46103;52.076;113.488;2023-04-22T17:15:52;-2.45;42.13
60242;SHT30;46103;52.076;113.488;2023-04-22T17:19:02;-2.44;43.25
60242;SHT30;46103;52.076;113.488;2023-04-22T17:22:13;-2.55;43.55
60242;SHT30;46103;52.076;113.488;2023-04-22T17:25:24;-2.60;43.83
60242;SHT30;46103;52.076;113.488;2023-04-22T17:28:34;-2.67;43.48
60242;SHT30;46103;52.076;113.488;2023-04-22T17:31:46;-2.70;43.85
60242;SHT30;46103;52.076;113.488;2023-04-22T17:34:55;-2.77;43.82
60242;SHT30;46103;52.076;113.488;2023-04-22T17:38:03;-2.80;44.12
60242;SHT30;46103;52.076;113.488;2023-04-22T17:41:12;-2.80;44.53
60242;SHT30;46103;52.076;113.488;2023-04-22T17:44:20;-2.80;44.78
60242;SHT30;46103;52.076;113.488;2023-04-22T17:47:29;-2.87;45.11
60242;SHT30;46103;52.076;113.488;2023-04-22T17:50:40;-2.98;45.01
60242;SHT30;46103;52.076;113.488;2023-04-22T17:53:50;-3.04;45.11
60242;SHT30;46103;52.076;113.488;2023-04-22T17:57:02;-3.08;45.29
60242;SHT30;46103;52.076;113.488;2023-04-22T18:00:13;-3.11;45.58
60242;SHT30;46103;52.076;113.488;2023-04-22T18:03:27;-3.15;45.86
60242;SHT30;46103;52.076;113.488;2023-04-22T18:06:39;-3.18;46.02
60242;SHT30;46103;52.076;113.488;2023-04-22T18:09:47;-3.25;46.37
60242;SHT30;46103;52.076;113.488;2023-04-22T18:12:58;-3.30;46.49
60242;SHT30;46103;52.076;113.488;2023-04-22T18:16:08;-3.35;46.56
60242;SHT30;46103;52.076;113.488;2023-04-22T18:19:17;-3.45;46.23
60242;SHT30;46103;52.076;113.488;2023-04-22T18:22:26;-3.55;46.35
60242;SHT30;46103;52.076;113.488;2023-04-22T18:25:40;-3.63;46.15
60242;SHT30;46103;52.076;113.488;2023-04-22T18:28:49;-3.67;46.25
60242;SHT30;46103;52.076;113.488;2023-04-22T18:32:01;-3.76;46.34
60242;SHT30;46103;52.076;113.488;2023-04-22T18:35:12;-3.80;46.29
60242;SHT30;46103;52.076;113.488;2023-04-22T18:38:23;-3.86;46.70
60242;SHT30;46103;52.076;113.488;2023-04-22T18:41:33;-4.01;47.91
60242;SHT30;46103;52.076;113.488;2023-04-22T18:44:45;-4.08;48.91
60242;SHT30;46103;52.076;113.488;2023-04-22T18:47:55;-4.14;49.38
60242;SHT30;46103;52.076;113.488;2023-04-22T18:51:06;-4.21;50.31
60242;SHT30;46103;52.076;113.488;2023-04-22T18:54:20;-4.28;50.66
60242;SHT30;46103;52.076;113.488;2023-04-22T18:57:35;-4.30;50.64
60242;SHT30;46103;52.076;113.488;2023-04-22T19:00:45;-4.29;50.62
60242;SHT30;46103;52.076;113.488;2023-04-22T19:03:56;-4.28;48.86
60242;SHT30;46103;52.076;113.488;2023-04-22T19:07:07;-4.32;49.02
60242;SHT30;46103;52.076;113.488;2023-04-22T19:10:17;-4.33;48.01
60242;SHT30;46103;52.076;113.488;2023-04-22T19:13:29;-4.36;48.54
60242;SHT30;46103;52.076;113.488;2023-04-22T19:16:44;-4.41;48.77
60242;SHT30;46103;52.076;113.488;2023-04-22T19:19:57;-4.49;49.34
60242;SHT30;46103;52.076;113.488;2023-04-22T19:23:09;-4.48;49.41